Time;durP1;ratioP1;P1;durP2;ratioP2;P2;SDS_P1;SDS_P2;PMS_P1;PMS_P2;Temp;Humidity;BMP_temperature;BMP_pressure;BME280_temperature;BME280_humidity;BME280_pressure;Samples;Min_cycle;Max_cycle;Signal;HPM_P1;HPM_P2
2022/10/27 00:01:35;;;;;;;11.25;3.80;;;15.00;86.90;;;;;;9174331;19;20297;-65
2022/10/27 00:04:39;;;;;;;;;;;15.00;86.90;;;;;;9173041;19;20049;-63
2022/10/27 00:07:44;;;;;;;6.45;3.80;;;14.90;86.80;;;;;;9170600;19;20292;-65
2022/10/27 00:10:57;;;;;;;6.90;3.72;;;14.90;87.10;;;;;;9174704;19;20094;-64
2022/10/27 00:14:01;;;;;;;8.63;3.40;;;14.90;87.40;;;;;;9174571;19;20082;-65
2022/10/27 00:17:05;;;;;;;10.15;3.92;;;14.90;87.50;;;;;;9174165;19;20491;-65
2022/10/27 00:20:10;;;;;;;11.00;4.05;;;14.90;87.60;;;;;;9173480;19;20010;-63
2022/10/27 00:23:15;;;;;;;11.13;4.22;;;14.90;87.60;;;;;;9172568;19;20011;-65
2022/10/27 00:26:21;;;;;;;6.95;3.47;;;14.90;87.10;;;;;;9173631;19;20111;-65
2022/10/27 00:29:25;;;;;;;6.97;3.25;;;14.90;87.30;;;;;;9173808;19;20048;-65
2022/10/27 00:32:28;;;;;;;11.02;4.00;;;14.90;87.80;;;;;;9168419;19;20026;-63
2022/10/27 00:35:32;;;;;;;5.90;3.80;;;14.80;87.40;;;;;;9173653;19;20496;-65
2022/10/27 00:38:38;;;;;;;9.60;3.88;;;14.80;87.60;;;;;;9173314;19;20515;-63
2022/10/27 00:41:43;;;;;;;9.88;3.88;;;14.80;87.50;;;;;;9173040;19;20518;-64
2022/10/27 00:44:48;;;;;;;8.32;4.03;;;14.70;87.40;;;;;;9169100;19;20818;-65
2022/10/27 00:47:51;;;;;;;7.28;3.80;;;14.70;87.20;;;;;;9180304;19;20026;-64
2022/10/27 00:50:56;;;;;;;8.57;4.22;;;14.70;87.30;;;;;;9182023;19;20011;-63
2022/10/27 00:54:02;;;;;;;7.40;3.90;;;14.70;87.70;;;;;;9181053;19;20085;-65
2022/10/27 00:57:08;;;;;;;12.00;3.92;;;14.70;87.50;;;;;;9180494;19;20399;-65
2022/10/27 01:00:13;;;;;;;8.48;3.42;;;14.60;87.70;;;;;;9180974;19;20025;-64
2022/10/27 01:03:21;;;;;;;10.93;4.50;;;14.60;87.40;;;;;;9178727;19;20026;-63
2022/10/27 01:06:25;;;;;;;8.00;4.53;;;14.60;87.40;;;;;;9179662;19;20093;-67
2022/10/27 01:09:32;;;;;;;6.70;3.70;;;14.60;87.50;;;;;;9179182;19;20018;-63
2022/10/27 01:12:36;;;;;;;10.88;4.07;;;14.50;87.30;;;;;;9178340;19;20125;-63
2022/10/27 01:15:48;;;;;;;9.95;4.28;;;14.50;87.60;;;;;;9180918;19;20531;-63
2022/10/27 01:19:06;;;;;;;6.50;3.78;;;14.50;87.60;;;;;;9180495;19;20019;-64
2022/10/27 01:22:14;;;;;;;12.98;4.28;;;14.50;87.70;;;;;;9179833;19;20015;-67
2022/10/27 01:25:47;;;;;;;8.10;3.88;;;14.50;87.30;;;;;;9178444;19;20025;-63
2022/10/27 01:29:20;;;;;;;8.02;3.65;;;14.50;87.70;;;;;;9179925;19;20090;-64
2022/10/27 01:32:33;;;;;;;11.73;4.55;;;14.50;87.80;;;;;;9175420;19;20483;-64
2022/10/27 01:35:45;;;;;;;12.10;4.38;;;14.50;88.00;;;;;;9179858;19;20376;-64
2022/10/27 01:38:56;;;;;;;11.50;4.70;;;14.50;87.70;;;;;;9179732;19;20012;-64
2022/10/27 01:42:04;;;;;;;8.93;4.55;;;14.40;87.40;;;;;;9178630;19;20048;-65
2022/10/27 01:45:11;;;;;;;8.73;4.10;;;14.40;87.80;;;;;;9176464;19;20019;-65
2022/10/27 01:48:17;;;;;;;8.23;4.40;;;14.40;87.60;;;;;;9179384;19;20089;-64
2022/10/27 01:51:20;;;;;;;11.40;4.93;;;14.40;88.20;;;;;;9179170;19;20585;-64
2022/10/27 01:54:24;;;;;;;15.20;5.07;;;14.40;88.10;;;;;;9178711;19;20011;-63
2022/10/27 01:57:34;;;;;;;14.15;5.32;;;14.40;88.10;;;;;;9175467;19;20073;-65
2022/10/27 02:00:53;;;;;;;9.20;5.30;;;14.40;88.40;;;;;;9178911;19;20018;-64
2022/10/27 02:04:07;;;;;;;9.40;4.82;;;14.40;88.40;;;;;;9177564;19;20090;-64
2022/10/27 02:07:18;;;;;;;14.10;4.47;;;14.40;88.30;;;;;;9179243;19;20327;-64
2022/10/27 02:10:25;;;;;;;11.52;4.93;;;14.40;87.80;;;;;;9178847;19;20026;-64
2022/10/27 02:13:31;;;;;;;10.18;5.03;;;14.40;88.40;;;;;;9178126;19;20024;-64
2022/10/27 02:16:42;;;;;;;10.32;4.45;;;14.40;88.30;;;;;;9177406;19;20348;-64
2022/10/27 02:19:51;;;;;;;10.35;5.50;;;14.40;88.40;;;;;;9178743;19;20434;-65
2022/10/27 02:22:57;;;;;;;9.50;5.22;;;14.40;88.10;;;;;;9178115;19;20018;-64
2022/10/27 02:26:09;;;;;;;11.10;4.70;;;14.40;88.30;;;;;;9178606;19;20019;-63
2022/10/27 02:29:18;;;;;;;8.98;4.43;;;14.40;88.10;;;;;;9178115;19;20022;-63
2022/10/27 02:32:23;;;;;;;8.98;4.68;;;14.40;88.30;;;;;;9174003;19;20037;-67
2022/10/27 02:35:30;;;;;;;13.45;5.28;;;14.30;88.40;;;;;;9177489;19;20015;-64
2022/10/27 02:38:34;;;;;;;7.95;4.75;;;14.30;88.20;;;;;;9177704;19;20045;-63
2022/10/27 02:41:37;;;;;;;9.77;4.20;;;14.30;88.40;;;;;;9178164;19;20026;-64
2022/10/27 02:44:41;;;;;;;11.27;4.82;;;14.30;88.40;;;;;;9175222;19;20018;-64
2022/10/27 02:47:45;;;;;;;12.23;5.53;;;14.30;88.20;;;;;;9175083;19;20018;-65
2022/10/27 02:50:50;;;;;;;;;;;14.30;87.80;;;;;;9177879;19;20767;-65
2022/10/27 02:53:54;;;;;;;15.60;5.32;;;14.20;87.70;;;;;;9176170;19;19926;-63
2022/10/27 02:56:57;;;;;;;9.13;5.05;;;14.20;87.70;;;;;;9177416;19;20059;-63
2022/10/27 03:00:01;;;;;;;22.63;5.80;;;14.20;88.10;;;;;;9177905;19;20014;-67
2022/10/27 03:03:05;;;;;;;8.32;4.55;;;14.20;87.90;;;;;;9176641;19;20048;-64
2022/10/27 03:06:10;;;;;;;10.65;5.20;;;14.20;88.30;;;;;;9177827;19;20021;-66
2022/10/27 03:09:14;;;;;;;12.18;4.90;;;14.20;88.50;;;;;;9174789;19;20019;-63
2022/10/27 03:12:18;;;;;;;10.75;4.60;;;14.10;88.50;;;;;;9177138;19;20799;-65
2022/10/27 03:15:21;;;;;;;8.98;5.40;;;14.10;88.30;;;;;;9176170;19;20022;-68
2022/10/27 03:18:25;;;;;;;7.03;4.38;;;14.10;88.30;;;;;;9176433;19;20014;-64
2022/10/27 03:21:30;;;;;;;12.90;4.45;;;14.10;88.10;;;;;;9176380;19;20014;-63
2022/10/27 03:24:34;;;;;;;15.02;5.13;;;14.10;88.20;;;;;;9173888;19;20024;-66
2022/10/27 03:27:40;;;;;;;8.45;4.90;;;14.10;88.20;;;;;;9175720;19;20034;-66
2022/10/27 03:30:44;;;;;;;13.10;4.90;;;14.10;88.30;;;;;;9176380;19;20018;-66
2022/10/27 03:33:47;;;;;;;10.40;4.55;;;14.00;88.00;;;;;;9171761;19;20085;-64
2022/10/27 03:36:53;;;;;;;8.35;4.45;;;14.00;88.20;;;;;;9175590;19;20014;-65
2022/10/27 03:39:56;;;;;;;13.77;5.03;;;14.00;88.10;;;;;;9174615;19;20081;-65
2022/10/27 03:43:00;;;;;;;12.07;4.68;;;14.00;88.00;;;;;;9176346;19;20010;-64
2022/10/27 03:46:03;;;;;;;10.55;5.22;;;14.00;88.10;;;;;;9174957;19;20027;-64
2022/10/27 03:49:07;;;;;;;10.82;4.40;;;14.00;88.50;;;;;;9174462;19;20014;-64
2022/10/27 03:52:13;;;;;;;12.98;4.97;;;14.00;88.50;;;;;;9171534;19;20025;-65
2022/10/27 03:55:17;;;;;;;11.90;5.10;;;14.00;88.40;;;;;;9174576;19;20014;-66
2022/10/27 03:58:21;;;;;;;10.00;4.25;;;14.00;88.50;;;;;;9175180;19;20018;-66
2022/10/27 04:01:24;;;;;;;9.43;4.75;;;13.90;88.50;;;;;;9175119;19;20022;-64
2022/10/27 04:04:28;;;;;;;;;;;13.90;88.20;;;;;;9171926;19;20035;-63
2022/10/27 04:07:34;;;;;;;13.63;4.63;;;14.00;88.40;;;;;;9175661;19;20340;-63
2022/10/27 04:10:37;;;;;;;11.15;4.40;;;13.90;88.20;;;;;;9175901;19;20150;-63
2022/10/27 04:13:41;;;;;;;10.32;4.50;;;13.90;88.30;;;;;;9174185;19;20105;-64
2022/10/27 04:16:50;;;;;;;15.90;5.65;;;13.90;88.60;;;;;;9174395;19;20018;-64
2022/10/27 04:19:53;;;;;;;16.08;4.68;;;13.90;89.00;;;;;;9171516;19;20019;-64
2022/10/27 04:22:59;;;;;;;13.82;5.00;;;13.90;88.80;;;;;;9174664;19;20347;-63
2022/10/27 04:26:03;;;;;;;13.07;4.30;;;13.90;88.70;;;;;;9169496;19;20014;-63
2022/10/27 04:29:07;;;;;;;10.63;4.40;;;13.90;89.10;;;;;;9174185;19;20471;-63
2022/10/27 04:32:10;;;;;;;13.38;4.90;;;13.90;88.70;;;;;;9169331;19;20015;-63
2022/10/27 04:35:14;;;;;;;14.98;4.65;;;13.90;89.10;;;;;;9174154;19;20010;-63
2022/10/27 04:38:19;;;;;;;13.60;5.30;;;13.80;88.50;;;;;;9173659;19;20029;-64
2022/10/27 04:41:23;;;;;;;11.77;4.10;;;13.90;89.10;;;;;;9173201;19;20047;-67
2022/10/27 04:44:27;;;;;;;12.80;4.63;;;13.80;89.20;;;;;;9168391;19;20063;-64
2022/10/27 04:47:30;;;;;;;7.30;4.03;;;13.80;89.00;;;;;;9170665;19;20118;-65
2022/10/27 04:50:34;;;;;;;6.97;3.83;;;13.90;89.20;;;;;;9173842;19;20010;-63
2022/10/27 04:53:39;;;;;;;9.77;4.18;;;13.80;88.90;;;;;;9172220;19;20031;-65
2022/10/27 04:56:43;;;;;;;7.68;4.30;;;13.80;88.90;;;;;;9172188;19;20026;-65
2022/10/27 04:59:47;;;;;;;7.43;4.07;;;13.80;89.20;;;;;;9172727;19;20008;-66
2022/10/27 05:02:54;;;;;;;12.57;4.65;;;13.80;89.00;;;;;;9172229;19;20078;-63
2022/10/27 05:06:00;;;;;;;14.98;5.30;;;13.70;88.80;;;;;;9168275;19;20011;-63
2022/10/27 05:09:05;;;;;;;12.02;4.47;;;13.70;89.10;;;;;;9172030;19;20011;-64
2022/10/27 05:12:09;;;;;;;15.43;5.07;;;13.70;88.80;;;;;;9172016;19;20040;-64
2022/10/27 05:15:12;;;;;;;20.48;4.75;;;13.70;88.90;;;;;;9172811;19;20025;-65
2022/10/27 05:18:17;;;;;;;13.05;5.57;;;13.70;89.10;;;;;;9170423;19;20018;-64
2022/10/27 05:21:21;;;;;;;17.13;6.28;;;13.70;89.10;;;;;;9167009;19;20029;-65
2022/10/27 05:24:27;;;;;;;16.05;6.35;;;13.70;88.90;;;;;;9163569;19;20021;-65
2022/10/27 05:27:32;;;;;;;13.45;6.00;;;13.70;89.20;;;;;;9168639;19;20272;-66
2022/10/27 05:30:36;;;;;;;15.23;5.97;;;13.70;89.20;;;;;;9164307;19;20022;-63
2022/10/27 05:33:39;;;;;;;12.40;6.47;;;13.70;89.30;;;;;;9166420;19;20011;-64
2022/10/27 05:36:43;;;;;;;15.50;7.18;;;13.70;89.30;;;;;;9164794;19;20066;-67
2022/10/27 05:39:49;;;;;;;15.63;6.15;;;13.70;89.40;;;;;;9169392;19;20078;-64
2022/10/27 05:42:54;;;;;;;15.18;5.70;;;13.60;89.20;;;;;;9170787;19;20360;-65
2022/10/27 05:45:59;;;;;;;12.60;6.00;;;13.70;89.40;;;;;;9169640;19;20022;-64
2022/10/27 05:49:02;;;;;;;11.15;5.80;;;13.70;88.90;;;;;;9171283;19;20108;-64
2022/10/27 05:52:06;;;;;;;8.75;5.03;;;13.70;88.80;;;;;;9177555;19;20025;-63
2022/10/27 05:55:12;;;;;;;11.82;5.88;;;13.70;89.00;;;;;;9179919;19;20099;-63
2022/10/27 05:58:15;;;;;;;8.13;4.82;;;13.70;89.40;;;;;;9179425;19;20018;-64
2022/10/27 06:01:19;;;;;;;15.00;5.95;;;13.60;89.00;;;;;;9179332;19;20047;-63
2022/10/27 06:04:23;;;;;;;12.55;4.75;;;13.60;89.20;;;;;;9176727;19;20480;-65
2022/10/27 06:07:27;;;;;;;11.57;5.50;;;13.60;89.20;;;;;;9180307;19;20103;-64
2022/10/27 06:10:32;;;;;;;11.82;4.93;;;13.50;89.10;;;;;;9178947;19;20028;-63
2022/10/27 06:13:36;;;;;;;10.68;5.10;;;13.60;89.00;;;;;;9179744;19;20025;-65
2022/10/27 06:16:39;;;;;;;9.70;4.97;;;13.60;89.10;;;;;;9167042;19;20029;-65
2022/10/27 06:19:43;;;;;;;11.55;5.50;;;13.50;89.00;;;;;;9172735;19;20267;-64
2022/10/27 06:22:47;;;;;;;11.77;5.18;;;13.50;89.20;;;;;;9172785;19;20024;-66
2022/10/27 06:25:52;;;;;;;11.95;5.20;;;13.50;89.00;;;;;;9169264;19;20136;-65
2022/10/27 06:28:56;;;;;;;12.75;4.90;;;13.50;89.00;;;;;;9171247;19;20025;-67
2022/10/27 06:32:00;;;;;;;9.80;4.90;;;13.40;89.10;;;;;;9167534;19;20538;-66
2022/10/27 06:35:03;;;;;;;13.88;4.55;;;13.40;89.20;;;;;;9172091;19;20676;-65
2022/10/27 06:38:08;;;;;;;11.25;4.88;;;13.40;89.10;;;;;;9171203;19;20090;-68
2022/10/27 06:41:13;;;;;;;9.70;4.88;;;13.40;89.50;;;;;;9168358;19;20364;-65
2022/10/27 06:44:21;;;;;;;11.50;4.95;;;13.30;89.20;;;;;;9174575;19;20488;-65
2022/10/27 06:47:25;;;;;;;9.98;4.88;;;13.30;89.20;;;;;;9177418;19;20050;-66
2022/10/27 06:50:29;;;;;;;13.00;5.25;;;13.30;89.10;;;;;;9177231;19;20029;-63
2022/10/27 06:53:32;;;;;;;7.72;4.30;;;13.30;88.60;;;;;;9176565;19;20089;-64
2022/10/27 06:56:38;;;;;;;19.77;5.88;;;13.30;88.90;;;;;;9176160;19;20118;-63
2022/10/27 06:59:42;;;;;;;12.25;5.03;;;13.30;89.00;;;;;;9177659;19;20745;-66
2022/10/27 07:02:45;;;;;;;12.20;4.57;;;13.30;89.30;;;;;;9176721;19;20093;-66
2022/10/27 07:05:49;;;;;;;9.80;4.65;;;13.20;88.90;;;;;;9174518;19;20118;-65
2022/10/27 07:08:53;;;;;;;8.10;4.90;;;13.20;89.00;;;;;;9177600;19;20007;-67
2022/10/27 07:12:01;;;;;;;8.50;4.55;;;13.20;89.30;;;;;;9177691;19;20022;-64
2022/10/27 07:15:06;;;;;;;11.80;5.00;;;13.20;89.00;;;;;;9177671;19;20011;-66
2022/10/27 07:18:11;;;;;;;14.40;5.35;;;13.20;89.10;;;;;;9176836;19;20023;-66
2022/10/27 07:21:15;;;;;;;12.00;5.55;;;13.20;89.00;;;;;;9175369;19;20052;-67
2022/10/27 07:24:18;;;;;;;;;;;13.20;89.10;;;;;;9177942;19;20022;-66
2022/10/27 07:27:24;;;;;;;12.93;5.40;;;13.20;89.70;;;;;;9177016;19;19978;-67
2022/10/27 07:30:30;;;;;;;13.02;6.28;;;13.20;89.00;;;;;;9177062;19;20089;-67
2022/10/27 07:33:34;;;;;;;13.70;6.28;;;13.20;89.30;;;;;;9171674;19;20846;-67
2022/10/27 07:36:38;;;;;;;12.75;6.18;;;13.20;89.50;;;;;;9173627;19;20052;-66
2022/10/27 07:39:41;;;;;;;15.32;7.32;;;13.20;90.00;;;;;;9176223;19;20025;-65
2022/10/27 07:42:48;;;;;;;15.75;6.53;;;13.30;90.10;;;;;;9176240;19;20018;-67
2022/10/27 07:45:53;;;;;;;17.05;6.82;;;13.40;90.00;;;;;;9171003;19;21005;-66
2022/10/27 07:48:56;;;;;;;12.93;7.00;;;13.40;90.20;;;;;;9175999;19;20029;-66
2022/10/27 07:52:00;;;;;;;12.57;6.55;;;13.50;90.20;;;;;;9175215;19;20081;-68
2022/10/27 07:55:04;;;;;;;14.82;6.55;;;13.50;90.10;;;;;;9175656;19;20021;-66
2022/10/27 07:58:12;;;;;;;18.15;6.63;;;13.60;90.20;;;;;;9174364;19;20347;-66
2022/10/27 08:01:16;;;;;;;22.15;6.28;;;13.70;90.20;;;;;;9175512;19;20022;-68
2022/10/27 08:04:19;;;;;;;11.65;6.45;;;13.80;90.20;;;;;;9172397;19;20041;-66
2022/10/27 08:07:23;;;;;;;22.73;6.78;;;13.90;90.20;;;;;;9175373;19;20018;-68
2022/10/27 08:10:27;;;;;;;12.32;6.45;;;13.90;90.10;;;;;;9175256;19;20014;-66
2022/10/27 08:13:32;;;;;;;;;;;14.00;90.20;;;;;;9176070;19;20021;-65
2022/10/27 08:16:36;;;;;;;22.95;5.80;;;14.10;90.30;;;;;;9175009;19;19982;-66
2022/10/27 08:19:40;;;;;;;12.98;5.65;;;14.20;90.10;;;;;;9174842;19;20019;-66
2022/10/27 08:22:43;;;;;;;17.02;5.00;;;14.30;90.40;;;;;;9174308;19;20649;-65
2022/10/27 08:25:47;;;;;;;14.80;4.97;;;14.40;90.20;;;;;;9171178;19;20019;-64
2022/10/27 08:28:53;;;;;;;11.20;4.75;;;14.60;90.30;;;;;;9173543;19;20017;-65
2022/10/27 08:31:56;;;;;;;13.73;4.65;;;14.60;90.40;;;;;;9168457;19;20028;-70
2022/10/27 08:35:00;;;;;;;7.53;3.97;;;14.70;90.40;;;;;;9174091;19;20014;-65
2022/10/27 08:38:06;;;;;;;10.10;3.88;;;14.80;90.30;;;;;;9173276;19;20007;-66
2022/10/27 08:41:19;;;;;;;9.18;3.15;;;14.90;90.30;;;;;;9174107;19;20025;-67
2022/10/27 08:44:35;;;;;;;8.25;3.35;;;15.10;90.40;;;;;;9173174;19;20896;-65
2022/10/27 08:47:39;;;;;;;4.13;2.83;;;15.20;90.30;;;;;;9172026;19;20014;-67
2022/10/27 08:50:45;;;;;;;11.25;2.88;;;15.30;90.40;;;;;;9174929;19;20022;-66
2022/10/27 08:53:51;;;;;;;5.15;2.50;;;15.40;90.40;;;;;;9172772;19;20468;-69
2022/10/27 08:56:58;;;;;;;8.23;2.80;;;15.40;90.40;;;;;;9172944;19;20022;-70
2022/10/27 09:00:05;;;;;;;6.20;2.45;;;15.60;90.50;;;;;;9171596;19;20018;-64
2022/10/27 09:03:37;;;;;;;6.00;2.03;;;15.60;90.30;;;;;;9174102;19;20025;-67
2022/10/27 09:06:48;;;;;;;8.40;2.15;;;15.80;90.50;;;;;;9172691;19;20020;-65
2022/10/27 09:09:55;;;;;;;6.72;1.98;;;15.90;90.40;;;;;;9180264;19;20011;-68
2022/10/27 09:13:09;;;;;;;9.45;2.38;;;16.00;90.20;;;;;;9179141;19;20048;-65
2022/10/27 09:16:21;;;;;;;8.07;2.20;;;16.10;90.30;;;;;;9179094;19;20011;-67
2022/10/27 09:19:30;;;;;;;6.70;2.28;;;16.20;90.10;;;;;;9181458;19;20077;-66
2022/10/27 09:22:36;;;;;;;6.65;1.98;;;16.30;90.20;;;;;;9180159;19;20129;-68
2022/10/27 09:26:00;;;;;;;10.20;2.28;;;16.40;90.20;;;;;;9179079;19;20014;-68
2022/10/27 09:29:09;;;;;;;6.53;2.03;;;16.50;90.10;;;;;;9178701;19;20025;-69
2022/10/27 09:32:21;;;;;;;4.75;1.80;;;16.60;89.90;;;;;;9176230;19;20022;-68
2022/10/27 09:35:27;;;;;;;5.90;2.28;;;16.80;90.00;;;;;;9180301;19;20091;-68
2022/10/27 09:38:31;;;;;;;8.57;1.90;;;16.80;90.10;;;;;;9178746;19;20023;-67
2022/10/27 09:41:35;;;;;;;6.63;1.90;;;17.00;90.00;;;;;;9180094;19;20401;-65
2022/10/27 09:44:38;;;;;;;5.25;1.77;;;17.10;90.00;;;;;;9178638;19;20023;-66
2022/10/27 09:47:47;;;;;;;4.63;1.83;;;17.20;89.80;;;;;;9179761;19;20042;-65
2022/10/27 09:50:56;;;;;;;6.35;1.80;;;17.40;89.70;;;;;;9180213;19;20472;-68
2022/10/27 09:54:02;;;;;;;2.28;1.40;;;17.50;89.30;;;;;;9180141;19;20021;-68
2022/10/27 09:57:08;;;;;;;10.05;1.95;;;17.50;89.50;;;;;;9179172;19;20010;-68
2022/10/27 10:00:25;;;;;;;8.40;1.40;;;17.70;89.60;;;;;;9178149;19;20018;-68
2022/10/27 10:03:31;;;;;;;5.25;1.10;;;17.80;89.90;;;;;;9177550;19;20018;-67
2022/10/27 10:06:37;;;;;;;3.22;1.77;;;17.90;89.20;;;;;;9173958;19;20048;-66
2022/10/27 10:09:40;;;;;;;6.00;1.30;;;18.00;89.50;;;;;;9179417;19;20081;-66
2022/10/27 10:12:44;;;;;;;8.65;1.88;;;18.10;89.10;;;;;;9178555;19;20545;-66
2022/10/27 10:15:48;;;;;;;4.05;1.58;;;18.30;89.00;;;;;;9178510;19;20025;-68
2022/10/27 10:19:03;;;;;;;4.03;1.63;;;18.40;89.80;;;;;;9176534;19;20061;-68
2022/10/27 10:22:06;;;;;;;4.82;1.23;;;18.50;88.60;;;;;;9178786;19;20045;-68
2022/10/27 10:25:21;;;;;;;6.00;1.27;;;18.60;88.40;;;;;;9177175;19;20029;-66
2022/10/27 10:28:33;;;;;;;5.82;1.30;;;18.80;88.20;;;;;;9178100;19;20018;-68
2022/10/27 10:31:37;;;;;;;8.27;1.45;;;18.90;88.00;;;;;;9174552;19;20022;-68
2022/10/27 10:34:43;;;;;;;;;;;19.00;87.60;;;;;;9179586;19;20026;-66
2022/10/27 10:37:47;;;;;;;3.67;1.05;;;19.10;87.70;;;;;;9178730;19;19919;-66
2022/10/27 10:40:59;;;;;;;7.40;1.55;;;19.40;88.00;;;;;;9172289;19;20013;-68
2022/10/27 10:44:13;;;;;;;5.00;1.17;;;19.30;87.50;;;;;;9173902;19;20022;-67
2022/10/27 10:47:27;;;;;;;2.50;0.77;;;19.50;87.50;;;;;;9172017;19;20014;-68
2022/10/27 10:50:42;;;;;;;5.60;0.88;;;19.60;87.30;;;;;;9171219;19;20014;-69
2022/10/27 10:53:51;;;;;;;2.58;1.50;;;19.70;87.10;;;;;;9175421;19;20033;-68
2022/10/27 10:56:56;;;;;;;3.45;1.10;;;19.80;86.90;;;;;;9173467;19;20095;-67
2022/10/27 11:00:00;;;;;;;2.55;0.82;;;20.00;86.40;;;;;;9176647;19;20019;-66
2022/10/27 11:03:05;;;;;;;;;;;20.10;86.30;;;;;;9178095;19;20022;-69
2022/10/27 11:06:19;;;;;;;7.45;2.22;;;20.30;86.00;;;;;;9175002;19;19921;-67
2022/10/27 11:09:23;;;;;;;6.87;1.20;;;20.30;86.10;;;;;;9176851;19;20019;-68
2022/10/27 11:12:32;;;;;;;2.88;0.82;;;20.40;85.80;;;;;;9177184;19;21117;-68
2022/10/27 11:15:44;;;;;;;3.08;0.85;;;20.40;85.40;;;;;;9175948;19;20014;-68
2022/10/27 11:18:52;;;;;;;2.45;0.95;;;20.50;85.10;;;;;;9176049;19;20074;-68
2022/10/27 11:22:02;;;;;;;1.85;1.00;;;20.50;84.80;;;;;;9174285;19;20161;-70
2022/10/27 11:25:11;;;;;;;3.10;1.25;;;20.70;85.10;;;;;;9175614;19;20023;-67
2022/10/27 11:28:20;;;;;;;2.42;0.75;;;20.70;84.90;;;;;;9176564;19;20026;-69
2022/10/27 11:31:32;;;;;;;15.15;1.00;;;20.80;84.60;;;;;;9171792;19;20521;-67
2022/10/27 11:34:42;;;;;;;3.22;1.33;;;20.80;84.30;;;;;;9176873;19;20052;-70
2022/10/27 11:37:58;;;;;;;4.05;1.02;;;20.90;84.10;;;;;;9175962;19;20035;-68
2022/10/27 11:41:09;;;;;;;4.78;0.80;;;20.90;83.60;;;;;;9175627;19;20105;-67
2022/10/27 11:44:21;;;;;;;4.03;0.90;;;20.90;83.80;;;;;;9176522;19;20070;-68
2022/10/27 11:47:29;;;;;;;3.63;1.00;;;21.00;83.20;;;;;;9175837;19;20018;-68
2022/10/27 11:50:40;;;;;;;4.78;1.30;;;21.00;83.00;;;;;;9176325;19;20022;-68
2022/10/27 11:53:45;;;;;;;3.55;0.90;;;21.00;82.90;;;;;;9175064;19;20018;-67
2022/10/27 11:57:03;;;;;;;3.83;1.05;;;21.10;83.00;;;;;;9175052;19;20014;-69
2022/10/27 12:00:26;;;;;;;4.75;0.90;;;21.10;83.00;;;;;;9175326;19;20010;-67
2022/10/27 12:03:51;;;;;;;4.03;1.20;;;21.10;82.80;;;;;;9174541;19;20102;-68
2022/10/27 12:07:09;;;;;;;3.63;0.93;;;21.10;82.00;;;;;;9171880;19;20015;-69
2022/10/27 12:10:24;;;;;;;2.95;0.95;;;21.10;82.30;;;;;;9173701;19;20078;-67
2022/10/27 12:13:36;;;;;;;7.07;0.80;;;21.10;82.10;;;;;;9175123;19;20479;-67
2022/10/27 12:16:47;;;;;;;4.20;0.93;;;21.20;82.00;;;;;;9174118;19;20447;-67
2022/10/27 12:19:56;;;;;;;3.00;0.80;;;21.10;81.70;;;;;;9173771;19;20022;-68
2022/10/27 12:23:04;;;;;;;2.15;1.00;;;21.20;82.00;;;;;;9173874;19;20018;-67
2022/10/27 12:26:15;;;;;;;5.72;1.38;;;21.20;81.90;;;;;;9171507;19;20018;-67
2022/10/27 12:29:20;;;;;;;9.45;1.23;;;21.20;82.70;;;;;;9173211;19;20010;-66
2022/10/27 12:32:27;;;;;;;4.82;1.10;;;21.20;81.70;;;;;;9167742;19;20030;-67
2022/10/27 12:35:35;;;;;;;2.47;0.80;;;21.30;81.90;;;;;;9172247;19;20123;-68
2022/10/27 12:38:46;;;;;;;4.80;0.80;;;21.30;81.30;;;;;;9173180;19;20111;-68
2022/10/27 12:42:01;;;;;;;5.43;1.15;;;21.30;81.20;;;;;;9169325;19;20010;-68
2022/10/27 12:45:23;;;;;;;6.88;1.20;;;21.30;81.10;;;;;;9172944;19;20020;-68
2022/10/27 12:48:34;;;;;;;4.88;0.70;;;21.30;80.90;;;;;;9172213;19;20518;-67
2022/10/27 12:51:49;;;;;;;5.35;1.45;;;21.30;80.80;;;;;;9172461;19;20019;-67
2022/10/27 12:55:08;;;;;;;5.47;1.00;;;21.30;81.50;;;;;;9170750;19;20022;-69
2022/10/27 12:58:22;;;;;;;7.82;1.50;;;21.30;81.10;;;;;;9172721;19;20056;-68
2022/10/27 13:01:37;;;;;;;5.90;1.20;;;21.40;80.70;;;;;;9173077;19;20018;-66
2022/10/27 13:05:07;;;;;;;12.45;1.02;;;21.30;80.90;;;;;;9170157;19;20052;-68
2022/10/27 13:08:44;;;;;;;2.92;1.00;;;21.30;81.20;;;;;;9171181;19;20143;-68
2022/10/27 13:12:07;;;;;;;5.00;1.10;;;21.30;80.30;;;;;;9171317;19;20019;-67
2022/10/27 13:15:49;;;;;;;6.40;1.02;;;21.30;80.70;;;;;;9161640;19;20099;-68
2022/10/27 13:19:20;;;;;;;5.18;1.17;;;21.30;80.20;;;;;;9170179;19;20018;-68
2022/10/27 13:22:33;;;;;;;4.78;1.20;;;21.30;80.60;;;;;;9172012;19;20078;-67
2022/10/27 13:25:41;;;;;;;8.77;1.85;;;21.20;80.60;;;;;;9171466;19;20082;-68
2022/10/27 13:28:49;;;;;;;5.13;1.42;;;21.30;81.00;;;;;;9169854;19;20074;-69
2022/10/27 13:32:32;;;;;;;5.00;1.60;;;21.30;80.60;;;;;;9166943;19;20031;-67
2022/10/27 13:35:38;;;;;;;5.68;0.80;;;21.30;80.80;;;;;;9168569;19;20090;-70
2022/10/27 13:38:41;;;;;;;7.95;0.90;;;21.30;80.50;;;;;;9169521;19;20025;-67
2022/10/27 13:41:50;;;;;;;5.20;1.27;;;21.20;80.60;;;;;;9170981;19;20486;-68
2022/10/27 13:44:56;;;;;;;6.07;0.95;;;21.30;80.70;;;;;;9167432;19;20010;-67
2022/10/27 13:48:33;;;;;;;3.55;1.25;;;21.20;80.30;;;;;;9170444;19;20539;-66
2022/10/27 13:51:45;;;;;;;2.65;1.05;;;21.20;79.90;;;;;;9171331;19;20108;-67
2022/10/27 13:55:34;;;;;;;6.25;1.45;;;21.30;80.10;;;;;;9177913;19;20035;-67
2022/10/27 13:58:56;;;;;;;5.20;0.95;;;21.20;79.70;;;;;;9178949;19;20109;-68
2022/10/27 14:02:05;;;;;;;5.75;1.20;;;21.20;80.10;;;;;;9179368;19;20015;-67
2022/10/27 14:05:22;;;;;;;5.35;1.30;;;21.20;80.10;;;;;;9175644;19;20581;-68
2022/10/27 14:08:30;;;;;;;6.10;1.25;;;21.20;79.80;;;;;;9178518;19;20503;-68
2022/10/27 14:11:34;;;;;;;3.85;0.90;;;21.20;80.20;;;;;;9178778;19;20070;-68
2022/10/27 14:14:40;;;;;;;11.10;1.50;;;21.20;80.30;;;;;;9177261;19;20025;-67
2022/10/27 14:17:45;;;;;;;11.32;1.13;;;21.20;79.90;;;;;;9179041;19;20018;-69
2022/10/27 14:20:49;;;;;;;4.22;1.48;;;21.20;79.80;;;;;;9178373;19;20017;-67
2022/10/27 14:23:55;;;;;;;6.45;1.27;;;21.20;80.30;;;;;;9178129;19;20011;-68
2022/10/27 14:27:00;;;;;;;3.80;1.30;;;21.20;80.00;;;;;;9175478;19;20103;-68
2022/10/27 14:30:14;;;;;;;3.70;1.05;;;21.20;80.40;;;;;;9178550;19;20022;-68
2022/10/27 14:33:20;;;;;;;3.47;0.82;;;21.20;80.00;;;;;;9174321;19;20090;-67
2022/10/27 14:36:30;;;;;;;10.25;1.02;;;21.20;79.90;;;;;;9176965;19;20018;-69
2022/10/27 14:39:38;;;;;;;6.50;1.27;;;21.10;79.60;;;;;;9176454;19;20019;-68
2022/10/27 14:42:42;;;;;;;4.30;1.10;;;21.10;79.70;;;;;;9177408;19;20077;-67
2022/10/27 14:45:46;;;;;;;;;;;21.00;79.60;;;;;;9176940;19;20015;-68
2022/10/27 14:48:58;;;;;;;4.70;1.30;;;21.00;80.10;;;;;;9176116;19;19960;-67
2022/10/27 14:52:04;;;;;;;2.83;1.25;;;21.00;79.80;;;;;;9177367;19;20010;-68
2022/10/27 14:55:17;;;;;;;6.15;1.15;;;21.00;79.60;;;;;;9177447;19;20442;-68
2022/10/27 14:58:23;;;;;;;5.45;1.08;;;21.00;79.70;;;;;;9177369;19;20022;-69
2022/10/27 15:01:29;;;;;;;5.85;1.02;;;21.00;79.60;;;;;;9177491;19;20025;-69
2022/10/27 15:04:38;;;;;;;5.88;1.10;;;20.90;79.70;;;;;;9171187;19;20015;-68
2022/10/27 15:07:46;;;;;;;3.17;1.30;;;20.90;80.10;;;;;;9172227;19;20014;-68
2022/10/27 15:10:53;;;;;;;2.63;1.23;;;20.90;79.80;;;;;;9176355;19;20021;-70
2022/10/27 15:13:57;;;;;;;6.47;1.30;;;20.80;79.60;;;;;;9174407;19;20090;-67
2022/10/27 15:17:02;;;;;;;2.60;1.38;;;20.80;79.80;;;;;;9175914;19;20359;-68
2022/10/27 15:20:08;;;;;;;8.50;1.85;;;20.80;79.70;;;;;;9176004;19;20011;-68
2022/10/27 15:23:14;;;;;;;6.40;1.30;;;20.80;79.60;;;;;;9175881;19;20040;-68
2022/10/27 15:26:25;;;;;;;4.15;1.30;;;20.70;80.00;;;;;;9174355;19;20017;-65
2022/10/27 15:29:29;;;;;;;8.57;1.60;;;20.60;79.70;;;;;;9174641;19;20019;-67
2022/10/27 15:32:37;;;;;;;;;;;20.70;79.80;;;;;;9171548;19;20507;-63
2022/10/27 15:35:42;;;;;;;6.38;1.42;;;20.60;79.80;;;;;;9175099;19;20347;-63
2022/10/27 15:38:49;;;;;;;9.98;1.70;;;20.60;79.80;;;;;;9175835;19;20030;-66
2022/10/27 15:41:54;;;;;;;9.73;1.60;;;20.50;79.90;;;;;;9174582;19;20022;-66
2022/10/27 15:45:30;;;;;;;5.28;1.40;;;20.50;79.90;;;;;;9169869;19;20037;-68
2022/10/27 15:48:35;;;;;;;5.97;1.20;;;20.50;79.80;;;;;;9169299;19;20015;-65
2022/10/27 15:51:46;;;;;;;2.92;1.30;;;20.40;80.30;;;;;;9168765;19;20027;-65
2022/10/27 15:54:51;;;;;;;3.45;1.80;;;20.40;79.70;;;;;;9170368;19;20022;-65
2022/10/27 15:57:56;;;;;;;3.67;1.33;;;20.40;79.90;;;;;;9168115;19;20118;-64
2022/10/27 16:01:06;;;;;;;4.55;1.33;;;20.30;79.80;;;;;;9167739;19;20014;-67
2022/10/27 16:04:31;;;;;;;9.82;1.70;;;20.30;79.90;;;;;;9167335;19;20011;-65
2022/10/27 16:07:34;;;;;;;8.35;1.70;;;20.30;79.60;;;;;;9165483;19;20121;-66
2022/10/27 16:10:38;;;;;;;7.97;2.47;;;20.30;80.20;;;;;;9172447;19;20376;-64
2022/10/27 16:13:48;;;;;;;4.53;2.28;;;20.30;80.10;;;;;;9172795;19;20496;-66
2022/10/27 16:16:52;;;;;;;7.13;1.77;;;20.20;79.90;;;;;;9170567;19;20551;-65